Billings, Montana
Current Conditions -  °F | °C
As of 1:53 PM on Thursday 18 Dec 2014 (Local Time) from KBIL Reporting Station
Scattered Clouds Scattered Clouds  
Wind Chill: 24°   Ceiling: Unl
Heat Index: 36°   Visibility: 10mi
Dew Point: 23°   Wind: 23mph
Humidity: 59%   Direction: 240°WSW
Pressure: 29.94"   Gusts: 30mph
Location:  45.78°N, 108.5°W
Report Text: KBIL 182053Z 24020G26KT 10SM FEW100 SCT250 02/M05 A2994 RMK AO2 PK WND 24026/2052 SLP169 ACSL ALQDS T00221050 56012
Loading
Personal Weather Stations






























Interactive Weather Map New forecast layout! Learn more

10-Day Weather Forecast

Advertisements
Track Severe Weather on mobile